Time;durP1;ratioP1;P1;durP2;ratioP2;P2;SDS_P1;SDS_P2;PMS_P1;PMS_P2;Temp;Humidity;BMP_temperature;BMP_pressure;BME280_temperature;BME280_humidity;BME280_pressure;Samples;Min_cycle;Max_cycle;Signal;HPM_P1;HPM_P2
2021/04/26 00:02:25;;;;;;;14.52;5.55;;;;;;;;;;5052673;28;20037;-65
2021/04/26 00:04:50;;;;;;;8.45;4.35;;;;;;;;;;5052609;28;20021;-65
2021/04/26 00:07:15;;;;;;;12.95;4.85;;;;;;;;;;5052666;28;20017;-65
2021/04/26 00:09:40;;;;;;;18.10;6.05;;;;;;;;;;5052767;28;20523;-65
2021/04/26 00:12:06;;;;;;;9.48;4.35;;;;;;;;;;5052611;28;20024;-65
2021/04/26 00:14:31;;;;;;;13.48;4.78;;;;;;;;;;5052630;28;20457;-65
2021/04/26 00:16:57;;;;;;;15.02;5.47;;;;;;;;;;5052491;28;20052;-65
2021/04/26 00:19:22;;;;;;;14.00;4.13;;;;;;;;;;5052677;28;20453;-65
2021/04/26 00:21:47;;;;;;;13.07;5.18;;;;;;;;;;5052481;28;20049;-65
2021/04/26 00:24:13;;;;;;;9.98;3.72;;;;;;;;;;5052364;28;20037;-65
2021/04/26 00:26:38;;;;;;;7.70;4.28;;;;;;;;;;5052423;28;20013;-65
2021/04/26 00:29:03;;;;;;;13.07;4.25;;;;;;;;;;5052672;28;20021;-64
2021/04/26 00:31:28;;;;;;;8.05;4.60;;;;;;;;;;5052696;28;20418;-65
2021/04/26 00:33:54;;;;;;;12.43;3.85;;;;;;;;;;5052301;28;20858;-65
2021/04/26 00:36:19;;;;;;;13.30;4.15;;;;;;;;;;5052389;28;20029;-65
2021/04/26 00:38:44;;;;;;;9.38;3.90;;;;;;;;;;5052229;28;20055;-65
2021/04/26 00:41:09;;;;;;;13.98;3.58;;;;;;;;;;5052307;28;20108;-64
2021/04/26 00:43:35;;;;;;;13.25;3.58;;;;;;;;;;5052501;28;20016;-64
2021/04/26 00:46:00;;;;;;;9.02;3.17;;;;;;;;;;5054867;28;20029;-65
2021/04/26 00:48:25;;;;;;;15.00;3.90;;;;;;;;;;5056272;28;20446;-65
2021/04/26 00:50:51;;;;;;;15.55;4.32;;;;;;;;;;5054576;28;20025;-65
2021/04/26 00:53:16;;;;;;;11.60;4.20;;;;;;;;;;5055895;28;20037;-63
2021/04/26 00:55:42;;;;;;;7.82;3.80;;;;;;;;;;5055606;28;20025;-65
2021/04/26 00:58:08;;;;;;;9.57;3.67;;;;;;;;;;5056203;28;20017;-64
2021/04/26 01:00:34;;;;;;;10.00;4.10;;;;;;;;;;5055647;28;20025;-65
2021/04/26 01:02:59;;;;;;;8.95;3.38;;;;;;;;;;5055724;28;20023;-65
2021/04/26 01:05:27;;;;;;;9.75;3.55;;;;;;;;;;5055688;28;20021;-65
2021/04/26 01:07:53;;;;;;;9.00;3.65;;;;;;;;;;5055663;28;20036;-64
2021/04/26 01:10:20;;;;;;;12.73;3.75;;;;;;;;;;5055210;28;20589;-65
2021/04/26 01:12:51;;;;;;;9.25;3.80;;;;;;;;;;5055656;28;20378;-64
2021/04/26 01:15:23;;;;;;;7.93;3.53;;;;;;;;;;5055346;28;20067;-65
2021/04/26 01:17:52;;;;;;;9.27;3.28;;;;;;;;;;5055506;28;20465;-65
2021/04/26 01:20:36;;;;;;;10.57;4.20;;;;;;;;;;5055334;28;20115;-65
2021/04/26 01:23:13;;;;;;;10.27;3.67;;;;;;;;;;5054494;28;20436;-65
2021/04/26 01:25:41;;;;;;;15.10;4.85;;;;;;;;;;5055186;28;20432;-65
2021/04/26 01:28:19;;;;;;;10.38;3.63;;;;;;;;;;5055313;28;20013;-64
2021/04/26 01:30:58;;;;;;;8.38;3.97;;;;;;;;;;5055130;28;20040;-64
2021/04/26 01:33:30;;;;;;;10.35;3.70;;;;;;;;;;5055123;28;20097;-65
2021/04/26 01:35:58;;;;;;;11.32;3.08;;;;;;;;;;5054939;28;20045;-65
2021/04/26 01:38:28;;;;;;;7.55;3.45;;;;;;;;;;5054979;28;20021;-64
2021/04/26 01:40:54;;;;;;;9.93;3.63;;;;;;;;;;5054394;28;20512;-64
2021/04/26 01:43:22;;;;;;;10.30;3.83;;;;;;;;;;5055039;28;20033;-64
2021/04/26 01:45:49;;;;;;;7.20;3.75;;;;;;;;;;5054937;28;20365;-64
2021/04/26 01:48:15;;;;;;;9.68;3.58;;;;;;;;;;5054922;28;20370;-64
2021/04/26 01:50:40;;;;;;;10.85;3.90;;;;;;;;;;5054817;28;20036;-65
2021/04/26 01:53:06;;;;;;;11.00;4.35;;;;;;;;;;5054535;28;20096;-63
2021/04/26 01:55:31;;;;;;;15.27;4.15;;;;;;;;;;5054133;28;20049;-64
2021/04/26 01:57:57;;;;;;;13.07;4.07;;;;;;;;;;5053627;28;20044;-64
2021/04/26 02:00:25;;;;;;;11.73;4.20;;;;;;;;;;5054164;28;20070;-65
2021/04/26 02:02:51;;;;;;;12.50;4.45;;;;;;;;;;5054358;28;20039;-65
2021/04/26 02:05:18;;;;;;;7.32;4.00;;;;;;;;;;5054606;28;20036;-64
2021/04/26 02:07:46;;;;;;;11.68;4.13;;;;;;;;;;5054355;28;20029;-65
2021/04/26 02:10:12;;;;;;;14.38;4.43;;;;;;;;;;5054501;28;20081;-64
2021/04/26 02:12:38;;;;;;;11.68;3.90;;;;;;;;;;5054272;28;20053;-64
2021/04/26 02:15:04;;;;;;;14.48;3.85;;;;;;;;;;5054280;28;20032;-64
2021/04/26 02:17:30;;;;;;;12.00;4.57;;;;;;;;;;5053650;28;20056;-64
2021/04/26 02:19:55;;;;;;;16.08;4.38;;;;;;;;;;5054302;28;20473;-65
2021/04/26 02:22:20;;;;;;;10.75;4.95;;;;;;;;;;5054191;28;20116;-64
2021/04/26 02:24:45;;;;;;;10.30;4.72;;;;;;;;;;5054174;28;20037;-65
2021/04/26 02:27:11;;;;;;;11.43;4.53;;;;;;;;;;5054047;28;20481;-64
2021/04/26 02:29:36;;;;;;;22.65;5.50;;;;;;;;;;5054368;28;20020;-64
2021/04/26 02:32:05;;;;;;;9.85;4.30;;;;;;;;;;5053953;28;20086;-62
2021/04/26 02:34:33;;;;;;;12.20;4.40;;;;;;;;;;5053989;28;20087;-64
2021/04/26 02:37:06;;;;;;;12.60;4.18;;;;;;;;;;5053758;28;20469;-64
2021/04/26 02:39:32;;;;;;;8.73;4.20;;;;;;;;;;5052580;28;20059;-64
2021/04/26 02:41:57;;;;;;;15.55;5.15;;;;;;;;;;5053688;28;20413;-65
2021/04/26 02:44:26;;;;;;;12.13;4.82;;;;;;;;;;5053943;28;20028;-64
2021/04/26 02:47:12;;;;;;;12.18;5.07;;;;;;;;;;5053659;28;20037;-64
2021/04/26 02:49:39;;;;;;;17.80;6.72;;;;;;;;;;5036272;28;20120;-64
2021/04/26 02:52:05;;;;;;;14.50;5.38;;;;;;;;;;5053577;28;20048;-64
2021/04/26 02:54:30;;;;;;;12.55;4.75;;;;;;;;;;5053690;28;20012;-64
2021/04/26 02:56:57;;;;;;;21.05;4.82;;;;;;;;;;5053536;28;20480;-64
2021/04/26 02:59:22;;;;;;;21.55;5.70;;;;;;;;;;5053119;28;20048;-64
2021/04/26 03:01:48;;;;;;;24.60;6.18;;;;;;;;;;5053486;28;20021;-65
2021/04/26 03:04:15;;;;;;;10.52;4.90;;;;;;;;;;5053496;28;20365;-64
2021/04/26 03:06:41;;;;;;;14.27;5.15;;;;;;;;;;5053343;28;20492;-64
2021/04/26 03:09:06;;;;;;;11.57;5.32;;;;;;;;;;5052787;28;20104;-64
2021/04/26 03:11:31;;;;;;;12.57;5.82;;;;;;;;;;5053326;28;20100;-65
2021/04/26 03:13:57;;;;;;;19.10;6.10;;;;;;;;;;5053398;28;20043;-64
2021/04/26 03:16:23;;;;;;;14.80;6.80;;;;;;;;;;5053179;28;20029;-64
2021/04/26 03:18:49;;;;;;;15.43;6.18;;;;;;;;;;5053324;28;20095;-64
2021/04/26 03:21:14;;;;;;;22.77;6.82;;;;;;;;;;5053501;28;20044;-64
2021/04/26 03:23:41;;;;;;;17.15;6.28;;;;;;;;;;5053196;28;20381;-65
2021/04/26 03:26:07;;;;;;;20.48;6.72;;;;;;;;;;5053282;28;20100;-64
2021/04/26 03:28:33;;;;;;;15.10;7.60;;;;;;;;;;5053063;28;20029;-64
2021/04/26 03:30:59;;;;;;;23.00;7.78;;;;;;;;;;5053096;28;20017;-64
2021/04/26 03:33:25;;;;;;;23.00;6.97;;;;;;;;;;5052922;28;20036;-64
2021/04/26 03:35:53;;;;;;;18.52;7.20;;;;;;;;;;5052882;28;20032;-64
2021/04/26 03:38:19;;;;;;;18.48;7.30;;;;;;;;;;5053041;28;20064;-64
2021/04/26 03:40:44;;;;;;;24.65;7.25;;;;;;;;;;5052555;28;20045;-64
2021/04/26 03:43:11;;;;;;;22.70;8.15;;;;;;;;;;5052945;28;20029;-65
2021/04/26 03:45:39;;;;;;;19.40;8.07;;;;;;;;;;5052741;28;20482;-64
2021/04/26 03:48:05;;;;;;;13.93;6.90;;;;;;;;;;5052925;28;20013;-64
2021/04/26 03:50:30;;;;;;;12.55;6.47;;;;;;;;;;5052989;28;20469;-64
2021/04/26 03:52:55;;;;;;;18.58;7.10;;;;;;;;;;5052808;28;20102;-64
2021/04/26 03:55:22;;;;;;;18.50;6.75;;;;;;;;;;5052897;28;20120;-64
2021/04/26 03:57:47;;;;;;;18.70;7.95;;;;;;;;;;5052826;28;20132;-64
2021/04/26 04:00:13;;;;;;;22.50;7.45;;;;;;;;;;5052851;28;20440;-64
2021/04/26 04:02:39;;;;;;;20.95;7.78;;;;;;;;;;5052799;28;20036;-64
2021/04/26 04:05:06;;;;;;;14.85;6.95;;;;;;;;;;5052906;28;20099;-64
2021/04/26 04:07:31;;;;;;;21.63;7.55;;;;;;;;;;5052683;28;20108;-64
2021/04/26 04:09:57;;;;;;;23.75;7.57;;;;;;;;;;5052941;28;20435;-64
2021/04/26 04:12:22;;;;;;;25.45;7.95;;;;;;;;;;5052632;28;20074;-64
2021/04/26 04:14:47;;;;;;;26.70;8.10;;;;;;;;;;5052692;28;20446;-64
2021/04/26 04:17:13;;;;;;;21.83;7.90;;;;;;;;;;5052732;28;20087;-64
2021/04/26 04:19:38;;;;;;;26.35;8.30;;;;;;;;;;5053231;28;20400;-64
2021/04/26 04:22:03;;;;;;;21.13;8.13;;;;;;;;;;5056402;28;20023;-64
2021/04/26 04:24:28;;;;;;;25.08;8.48;;;;;;;;;;5056537;28;20013;-65
2021/04/26 04:26:54;;;;;;;23.35;8.73;;;;;;;;;;5056562;28;20108;-64
2021/04/26 04:29:21;;;;;;;26.35;9.07;;;;;;;;;;5056389;28;20013;-64
2021/04/26 04:31:46;;;;;;;19.90;7.20;;;;;;;;;;5056229;28;20021;-64
2021/04/26 04:34:11;;;;;;;25.88;7.78;;;;;;;;;;5056381;28;20423;-64
2021/04/26 04:36:36;;;;;;;25.80;8.32;;;;;;;;;;5056064;28;20029;-64
2021/04/26 04:39:02;;;;;;;26.45;8.15;;;;;;;;;;5056212;28;20084;-64
2021/04/26 04:41:27;;;;;;;26.05;8.65;;;;;;;;;;5055962;28;20041;-64
2021/04/26 04:43:53;;;;;;;26.52;8.43;;;;;;;;;;5055645;28;20017;-64
2021/04/26 04:46:19;;;;;;;21.88;8.20;;;;;;;;;;5055855;28;20045;-65
2021/04/26 04:48:45;;;;;;;27.38;9.55;;;;;;;;;;5056051;28;20427;-65
2021/04/26 04:51:10;;;;;;;24.35;8.45;;;;;;;;;;5055971;28;20025;-64
2021/04/26 04:53:36;;;;;;;28.33;8.38;;;;;;;;;;5056291;28;20034;-64
2021/04/26 04:56:01;;;;;;;22.38;8.60;;;;;;;;;;5055952;28;20470;-64
2021/04/26 04:58:26;;;;;;;19.42;7.97;;;;;;;;;;5055552;28;20461;-65
2021/04/26 05:00:51;;;;;;;26.85;8.75;;;;;;;;;;5055872;28;20103;-64
2021/04/26 05:03:17;;;;;;;22.50;8.43;;;;;;;;;;5055666;28;20493;-64
2021/04/26 05:05:42;;;;;;;24.38;7.90;;;;;;;;;;5055724;28;20013;-64
2021/04/26 05:08:07;;;;;;;21.05;7.85;;;;;;;;;;5055605;28;20446;-64
2021/04/26 05:10:32;;;;;;;26.45;8.15;;;;;;;;;;5055583;28;20091;-64
2021/04/26 05:12:58;;;;;;;22.98;8.52;;;;;;;;;;5055441;28;20393;-64
2021/04/26 05:15:23;;;;;;;20.50;7.43;;;;;;;;;;5055537;28;20098;-64
2021/04/26 05:17:50;;;;;;;25.58;8.38;;;;;;;;;;5055061;28;20029;-64
2021/04/26 05:20:15;;;;;;;19.80;7.53;;;;;;;;;;5055576;28;20032;-64
2021/04/26 05:22:41;;;;;;;20.45;8.07;;;;;;;;;;5055256;28;20438;-64
2021/04/26 05:25:08;;;;;;;19.52;7.55;;;;;;;;;;5055370;28;20051;-64
2021/04/26 05:27:34;;;;;;;19.00;7.10;;;;;;;;;;5055183;28;20017;-65
2021/04/26 05:29:59;;;;;;;17.80;6.68;;;;;;;;;;5055342;28;20504;-64
2021/04/26 05:32:24;;;;;;;12.50;6.38;;;;;;;;;;5054849;28;20490;-64
2021/04/26 05:34:49;;;;;;;17.42;5.88;;;;;;;;;;5055086;28;20017;-65
2021/04/26 05:37:15;;;;;;;17.25;6.15;;;;;;;;;;5055072;28;20607;-64
2021/04/26 05:39:40;;;;;;;10.57;5.40;;;;;;;;;;5055012;28;20048;-64
2021/04/26 05:42:05;;;;;;;13.95;4.20;;;;;;;;;;5054630;28;20020;-65
2021/04/26 05:44:31;;;;;;;8.63;4.10;;;;;;;;;;5055011;28;20484;-65
2021/04/26 05:46:56;;;;;;;10.48;3.50;;;;;;;;;;5055138;28;20446;-65
2021/04/26 05:49:21;;;;;;;8.40;3.72;;;;;;;;;;5054888;28;20461;-65
2021/04/26 05:51:47;;;;;;;5.18;3.00;;;;;;;;;;5054806;28;20013;-63
2021/04/26 05:54:12;;;;;;;8.88;2.83;;;;;;;;;;5054781;28;20127;-63
2021/04/26 05:56:37;;;;;;;5.78;2.47;;;;;;;;;;5054328;28;20389;-63
2021/04/26 05:59:02;;;;;;;6.47;2.55;;;;;;;;;;5054745;28;20021;-63
2021/04/26 06:01:28;;;;;;;9.00;2.40;;;;;;;;;;5054310;28;20496;-63
2021/04/26 06:03:53;;;;;;;4.35;2.60;;;;;;;;;;5054606;28;20358;-64
2021/04/26 06:06:18;;;;;;;5.65;2.13;;;;;;;;;;5054236;28;20057;-64
2021/04/26 06:08:44;;;;;;;5.47;2.35;;;;;;;;;;5054579;28;20043;-64
2021/04/26 06:11:09;;;;;;;7.78;2.25;;;;;;;;;;5054203;28;20096;-64
2021/04/26 06:13:34;;;;;;;7.50;1.92;;;;;;;;;;5054389;28;20013;-64
2021/04/26 06:15:59;;;;;;;7.10;1.75;;;;;;;;;;5054313;28;20048;-64
2021/04/26 06:18:25;;;;;;;7.22;1.88;;;;;;;;;;5054209;28;20024;-64
2021/04/26 06:20:51;;;;;;;7.00;1.70;;;;;;;;;;5054400;28;20021;-64
2021/04/26 06:23:17;;;;;;;6.55;1.75;;;;;;;;;;5054031;28;20064;-64
2021/04/26 06:25:43;;;;;;;6.68;1.90;;;;;;;;;;5053952;28;20056;-64
2021/04/26 06:28:09;;;;;;;7.07;1.58;;;;;;;;;;5054103;28;20373;-64
2021/04/26 06:30:35;;;;;;;5.18;1.70;;;;;;;;;;5053778;28;20036;-64
2021/04/26 06:33:00;;;;;;;4.85;1.38;;;;;;;;;;5053924;28;20025;-64
2021/04/26 06:35:26;;;;;;;5.53;1.45;;;;;;;;;;5053560;28;20021;-64
2021/04/26 06:37:51;;;;;;;3.47;1.45;;;;;;;;;;5053837;28;20124;-64
2021/04/26 06:40:16;;;;;;;6.13;1.98;;;;;;;;;;5053950;28;20084;-64
2021/04/26 06:42:42;;;;;;;4.70;1.50;;;;;;;;;;5053141;28;20024;-64
2021/04/26 06:45:08;;;;;;;8.63;1.40;;;;;;;;;;5053822;28;20063;-64
2021/04/26 06:47:33;;;;;;;4.82;1.55;;;;;;;;;;5053933;28;20397;-64
2021/04/26 06:49:59;;;;;;;3.83;1.35;;;;;;;;;;5053911;28;20078;-64
2021/04/26 06:52:24;;;;;;;6.40;1.40;;;;;;;;;;5053530;28;20358;-63
2021/04/26 06:54:49;;;;;;;4.50;1.55;;;;;;;;;;5053323;28;20021;-63
2021/04/26 06:57:15;;;;;;;7.72;1.33;;;;;;;;;;5053847;28;20032;-63
2021/04/26 06:59:40;;;;;;;5.45;1.70;;;;;;;;;;5053547;28;20052;-63
2021/04/26 07:02:05;;;;;;;6.60;1.83;;;;;;;;;;5053395;28;20024;-63
2021/04/26 07:04:30;;;;;;;6.43;1.70;;;;;;;;;;5053606;28;20118;-63
2021/04/26 07:06:55;;;;;;;3.45;1.83;;;;;;;;;;5053321;28;20068;-63
2021/04/26 07:09:21;;;;;;;3.15;1.77;;;;;;;;;;5053397;28;20106;-63
2021/04/26 07:11:46;;;;;;;5.03;1.63;;;;;;;;;;5053221;28;20374;-63
2021/04/26 07:14:11;;;;;;;6.13;1.90;;;;;;;;;;5053441;28;20102;-63
2021/04/26 07:16:37;;;;;;;7.13;2.33;;;;;;;;;;5053131;28;20127;-63
2021/04/26 07:19:02;;;;;;;7.65;2.15;;;;;;;;;;5053416;28;20016;-63
2021/04/26 07:21:27;;;;;;;4.40;2.00;;;;;;;;;;5053159;28;20385;-63
2021/04/26 07:23:53;;;;;;;8.75;2.10;;;;;;;;;;5053278;28;20085;-64
2021/04/26 07:26:18;;;;;;;6.30;2.28;;;;;;;;;;5053018;28;20025;-63
2021/04/26 07:28:43;;;;;;;5.88;2.55;;;;;;;;;;5052822;28;20040;-63
2021/04/26 07:31:09;;;;;;;3.47;1.85;;;;;;;;;;5052506;28;20063;-63
2021/04/26 07:33:34;;;;;;;4.70;1.92;;;;;;;;;;5052982;28;20365;-63
2021/04/26 07:35:59;;;;;;;3.85;2.10;;;;;;;;;;5051506;28;20048;-63
2021/04/26 07:38:25;;;;;;;5.18;2.50;;;;;;;;;;5052626;28;20481;-63
2021/04/26 07:40:50;;;;;;;8.55;2.60;;;;;;;;;;5053129;28;20052;-63
2021/04/26 07:43:16;;;;;;;10.45;3.00;;;;;;;;;;5052868;28;20028;-63
2021/04/26 07:45:41;;;;;;;4.90;1.90;;;;;;;;;;5053072;28;20465;-63
2021/04/26 07:48:07;;;;;;;9.05;2.90;;;;;;;;;;5052878;28;20025;-63
2021/04/26 07:50:32;;;;;;;4.13;2.25;;;;;;;;;;5052495;28;20033;-63
2021/04/26 07:52:57;;;;;;;12.30;3.00;;;;;;;;;;5043428;28;20009;-63
2021/04/26 07:55:23;;;;;;;7.68;2.30;;;;;;;;;;5051659;28;20025;-63
2021/04/26 07:57:48;;;;;;;6.68;2.70;;;;;;;;;;5051951;28;20033;-63
2021/04/26 08:00:14;;;;;;;7.75;2.42;;;;;;;;;;5052062;28;20075;-63
2021/04/26 08:02:39;;;;;;;6.70;2.97;;;;;;;;;;5051848;28;20021;-63
2021/04/26 08:05:05;;;;;;;9.07;3.10;;;;;;;;;;5051849;28;20048;-63
2021/04/26 08:07:30;;;;;;;5.63;2.83;;;;;;;;;;5052080;28;20017;-63
2021/04/26 08:09:55;;;;;;;9.60;3.58;;;;;;;;;;5051935;28;20029;-64
2021/04/26 08:12:21;;;;;;;4.65;3.00;;;;;;;;;;5051483;28;20056;-63
2021/04/26 08:14:47;;;;;;;8.05;3.03;;;;;;;;;;5051574;28;20537;-63
2021/04/26 08:17:12;;;;;;;11.07;3.40;;;;;;;;;;5050536;28;20041;-65
2021/04/26 08:19:37;;;;;;;6.07;2.95;;;;;;;;;;5051895;28;20037;-65
2021/04/26 08:22:02;;;;;;;10.00;3.10;;;;;;;;;;5051456;28;20473;-65
2021/04/26 08:24:28;;;;;;;9.48;3.17;;;;;;;;;;5047847;28;20021;-66
2021/04/26 08:26:54;;;;;;;6.47;2.65;;;;;;;;;;5045864;28;20040;-66
2021/04/26 08:29:19;;;;;;;9.43;2.97;;;;;;;;;;5045882;28;20013;-65
2021/04/26 08:31:45;;;;;;;8.27;2.92;;;;;;;;;;5048136;28;20025;-65
2021/04/26 08:34:10;;;;;;;6.68;3.17;;;;;;;;;;5047977;28;20041;-65
2021/04/26 08:36:35;;;;;;;6.93;2.65;;;;;;;;;;5052427;28;20036;-66
2021/04/26 08:39:01;;;;;;;7.00;2.88;;;;;;;;;;5054072;28;20021;-65
2021/04/26 08:41:27;;;;;;;10.73;3.33;;;;;;;;;;5050327;28;20103;-65
2021/04/26 08:43:52;;;;;;;8.23;3.35;;;;;;;;;;5051200;28;20457;-65
2021/04/26 08:46:17;;;;;;;7.40;2.90;;;;;;;;;;5051093;28;20017;-66
2021/04/26 08:48:43;;;;;;;7.65;3.00;;;;;;;;;;5035926;28;20067;-66
2021/04/26 08:51:08;;;;;;;7.30;3.05;;;;;;;;;;5047707;28;20021;-66
2021/04/26 08:53:33;;;;;;;8.38;2.38;;;;;;;;;;5047668;28;20066;-65
2021/04/26 08:55:59;;;;;;;4.90;2.53;;;;;;;;;;5047297;28;20317;-66
2021/04/26 08:58:27;;;;;;;10.15;2.50;;;;;;;;;;5047644;28;20025;-65
2021/04/26 09:00:52;;;;;;;4.60;2.58;;;;;;;;;;5047996;28;20547;-66
2021/04/26 09:03:18;;;;;;;7.90;2.53;;;;;;;;;;5047461;28;20033;-66
2021/04/26 09:05:47;;;;;;;8.00;2.63;;;;;;;;;;5048361;28;20029;-66
2021/04/26 09:08:18;;;;;;;7.63;3.10;;;;;;;;;;5047890;28;20029;-65
2021/04/26 09:10:45;;;;;;;7.75;2.72;;;;;;;;;;5048483;28;20040;-66
2021/04/26 09:13:29;;;;;;;11.27;2.53;;;;;;;;;;5047514;28;20031;-65
2021/04/26 09:16:10;;;;;;;7.07;2.63;;;;;;;;;;5032093;28;20469;-66
2021/04/26 09:18:55;;;;;;;5.25;2.80;;;;;;;;;;5047646;28;20029;-65
2021/04/26 09:21:20;;;;;;;6.50;2.97;;;;;;;;;;5048759;28;20178;-66
2021/04/26 09:23:50;;;;;;;9.43;3.30;;;;;;;;;;5047724;28;20926;-65
2021/04/26 09:26:22;;;;;;;6.80;2.63;;;;;;;;;;5048053;28;20029;-66
2021/04/26 09:29:08;;;;;;;6.93;2.72;;;;;;;;;;5047773;28;20136;-66
2021/04/26 09:31:33;;;;;;;4.47;2.45;;;;;;;;;;5047838;28;20041;-66
2021/04/26 09:33:58;;;;;;;9.27;3.00;;;;;;;;;;5048341;28;20087;-66
2021/04/26 09:36:31;;;;;;;5.55;2.67;;;;;;;;;;5047985;28;20040;-66
2021/04/26 09:38:56;;;;;;;9.00;2.55;;;;;;;;;;5047501;28;20078;-66
2021/04/26 09:41:31;;;;;;;4.88;2.10;;;;;;;;;;5047573;28;20036;-66
2021/04/26 09:43:59;;;;;;;9.40;2.70;;;;;;;;;;5042192;28;20037;-66
2021/04/26 09:46:37;;;;;;;8.90;2.22;;;;;;;;;;5047006;28;20078;-66
2021/04/26 09:49:07;;;;;;;4.07;2.22;;;;;;;;;;5047244;28;20721;-66
2021/04/26 09:51:32;;;;;;;5.18;2.47;;;;;;;;;;5037004;28;20040;-67
2021/04/26 09:53:57;;;;;;;9.10;3.40;;;;;;;;;;5045123;28;20037;-66
2021/04/26 09:56:24;;;;;;;5.38;2.20;;;;;;;;;;5047182;28;20036;-66
2021/04/26 09:59:02;;;;;;;10.80;2.90;;;;;;;;;;5047076;28;20040;-66
2021/04/26 10:01:28;;;;;;;4.32;2.20;;;;;;;;;;5047368;28;20181;-66
2021/04/26 10:03:53;;;;;;;5.90;2.30;;;;;;;;;;5046767;28;20112;-67
2021/04/26 10:06:20;;;;;;;5.85;2.55;;;;;;;;;;5047322;28;20043;-67
2021/04/26 10:08:47;;;;;;;5.78;2.85;;;;;;;;;;5047548;28;20108;-66
2021/04/26 10:11:12;;;;;;;5.85;2.65;;;;;;;;;;5047593;28;20079;-68
2021/04/26 10:13:38;;;;;;;10.00;3.58;;;;;;;;;;5046697;28;20061;-67
2021/04/26 10:16:05;;;;;;;7.32;2.50;;;;;;;;;;5046365;28;20386;-67
2021/04/26 10:18:33;;;;;;;4.35;2.40;;;;;;;;;;5046334;28;20083;-67
2021/04/26 10:20:58;;;;;;;4.97;2.80;;;;;;;;;;5047023;28;20045;-67
2021/04/26 10:23:43;;;;;;;5.95;3.13;;;;;;;;;;5047617;28;20097;-66
2021/04/26 10:26:28;;;;;;;5.40;2.85;;;;;;;;;;5046052;28;20542;-67
2021/04/26 10:29:06;;;;;;;6.30;2.70;;;;;;;;;;5040865;28;20118;-67
2021/04/26 10:31:51;;;;;;;7.10;2.25;;;;;;;;;;5040557;28;20598;-67
2021/04/26 10:34:16;;;;;;;6.72;2.25;;;;;;;;;;5041502;28;20045;-67
2021/04/26 10:36:46;;;;;;;5.18;2.05;;;;;;;;;;5040602;28;20553;-67
2021/04/26 10:39:16;;;;;;;15.27;2.90;;;;;;;;;;5042135;28;20057;-67
2021/04/26 10:41:52;;;;;;;4.07;2.38;;;;;;;;;;5042337;28;20112;-67
2021/04/26 10:44:36;;;;;;;7.22;2.60;;;;;;;;;;5042588;28;20340;-66
2021/04/26 10:47:18;;;;;;;5.43;2.60;;;;;;;;;;5042477;28;20489;-66
2021/04/26 10:49:46;;;;;;;9.57;3.22;;;;;;;;;;5044600;28;20135;-66
2021/04/26 10:52:26;;;;;;;8.07;3.20;;;;;;;;;;5045764;28;20037;-66
2021/04/26 10:54:55;;;;;;;6.22;3.80;;;;;;;;;;5045491;28;20036;-66
2021/04/26 10:57:29;;;;;;;7.53;3.85;;;;;;;;;;5045045;28;20045;-66
2021/04/26 10:59:55;;;;;;;5.85;3.85;;;;;;;;;;5045140;28;20060;-66
2021/04/26 11:02:30;;;;;;;8.02;3.80;;;;;;;;;;5045592;28;20474;-66
2021/04/26 11:05:14;;;;;;;9.40;3.38;;;;;;;;;;5045572;28;20039;-66
2021/04/26 11:07:41;;;;;;;5.97;4.25;;;;;;;;;;5041401;28;20130;-66
2021/04/26 11:10:25;;;;;;;5.72;4.47;;;;;;;;;;5027210;28;20032;-66
2021/04/26 11:12:50;;;;;;;12.10;4.70;;;;;;;;;;5038113;28;20021;-66
2021/04/26 11:15:17;;;;;;;9.45;4.50;;;;;;;;;;5040432;28;20466;-66
2021/04/26 11:17:43;;;;;;;9.77;4.65;;;;;;;;;;5038542;28;20043;-66
2021/04/26 11:20:11;;;;;;;9.02;4.63;;;;;;;;;;5038715;28;20104;-66
2021/04/26 11:22:36;;;;;;;8.75;4.55;;;;;;;;;;5038515;28;20468;-66
2021/04/26 11:25:03;;;;;;;6.28;3.65;;;;;;;;;;5039179;28;20086;-66
2021/04/26 11:27:29;;;;;;;5.53;3.50;;;;;;;;;;5040937;28;20028;-66
2021/04/26 11:29:55;;;;;;;9.25;4.90;;;;;;;;;;5034503;28;20033;-66
2021/04/26 11:32:21;;;;;;;7.22;4.05;;;;;;;;;;5042420;28;20033;-66
2021/04/26 11:34:46;;;;;;;8.23;3.58;;;;;;;;;;5030237;28;20037;-66
2021/04/26 11:37:11;;;;;;;6.15;3.70;;;;;;;;;;5038498;28;20056;-66
2021/04/26 11:39:37;;;;;;;8.43;3.95;;;;;;;;;;5038868;28;20048;-66
2021/04/26 11:42:03;;;;;;;10.05;3.53;;;;;;;;;;5039109;28;20055;-66
2021/04/26 11:44:32;;;;;;;7.70;3.45;;;;;;;;;;5039151;28;20036;-66
2021/04/26 11:47:05;;;;;;;7.95;3.60;;;;;;;;;;5038799;28;20206;-66
2021/04/26 11:49:34;;;;;;;9.73;3.15;;;;;;;;;;5039249;28;20981;-66
2021/04/26 11:51:59;;;;;;;8.45;3.55;;;;;;;;;;5039186;28;20493;-66
2021/04/26 11:54:25;;;;;;;8.88;4.20;;;;;;;;;;5039751;28;20025;-66
2021/04/26 11:57:02;;;;;;;8.75;4.20;;;;;;;;;;5040957;28;20045;-66
2021/04/26 11:59:27;;;;;;;5.53;4.00;;;;;;;;;;5041381;28;20033;-65
2021/04/26 12:01:53;;;;;;;5.75;3.42;;;;;;;;;;5040886;28;20064;-66
2021/04/26 12:04:36;;;;;;;4.70;3.20;;;;;;;;;;5041107;28;20148;-66
2021/04/26 12:07:01;;;;;;;5.95;3.70;;;;;;;;;;5040442;28;20032;-66
2021/04/26 12:09:27;;;;;;;8.00;4.07;;;;;;;;;;5040957;28;20396;-66
2021/04/26 12:11:59;;;;;;;9.27;4.13;;;;;;;;;;5041717;28;20029;-66
2021/04/26 12:14:24;;;;;;;6.07;4.57;;;;;;;;;;5040043;28;20048;-66
2021/04/26 12:16:49;;;;;;;8.70;4.57;;;;;;;;;;5041801;28;20041;-66
2021/04/26 12:19:15;;;;;;;7.13;3.97;;;;;;;;;;5040788;28;20441;-66
2021/04/26 12:21:40;;;;;;;9.80;4.65;;;;;;;;;;5041152;28;20037;-66
2021/04/26 12:24:06;;;;;;;7.50;4.00;;;;;;;;;;5039675;28;20037;-66
2021/04/26 12:26:31;;;;;;;9.05;3.63;;;;;;;;;;5041334;28;20684;-66
2021/04/26 12:28:57;;;;;;;6.53;3.95;;;;;;;;;;5041411;28;20082;-66
2021/04/26 12:31:24;;;;;;;6.97;3.53;;;;;;;;;;5040637;28;20802;-65
2021/04/26 12:33:49;;;;;;;8.10;3.63;;;;;;;;;;5041224;28;20079;-67
2021/04/26 12:36:15;;;;;;;5.13;3.85;;;;;;;;;;5040664;28;20540;-66
2021/04/26 12:38:46;;;;;;;9.32;3.88;;;;;;;;;;5040618;28;20043;-66
2021/04/26 12:41:12;;;;;;;8.65;3.95;;;;;;;;;;5042449;28;20061;-66
2021/04/26 12:43:39;;;;;;;8.15;4.35;;;;;;;;;;5047534;28;20036;-66
2021/04/26 12:46:08;;;;;;;7.95;3.28;;;;;;;;;;5048031;28;20111;-66
2021/04/26 12:48:34;;;;;;;6.30;3.75;;;;;;;;;;5048331;28;20056;-66
2021/04/26 12:50:59;;;;;;;8.00;4.07;;;;;;;;;;5047469;28;20025;-66
2021/04/26 12:53:28;;;;;;;7.35;4.63;;;;;;;;;;5048082;28;20535;-66
2021/04/26 12:56:02;;;;;;;9.63;4.57;;;;;;;;;;5045484;28;20033;-66
2021/04/26 12:58:35;;;;;;;6.50;4.17;;;;;;;;;;5047605;28;20035;-66
2021/04/26 13:01:01;;;;;;;10.00;4.20;;;;;;;;;;5030691;28;20121;-66
2021/04/26 13:03:27;;;;;;;12.57;4.45;;;;;;;;;;5042739;28;20025;-66
2021/04/26 13:05:53;;;;;;;7.18;4.25;;;;;;;;;;5042790;28;20033;-66
2021/04/26 13:08:20;;;;;;;7.45;3.38;;;;;;;;;;5042382;28;20033;-66
2021/04/26 13:10:45;;;;;;;6.30;3.40;;;;;;;;;;5045157;28;20025;-66
2021/04/26 13:13:11;;;;;;;10.00;3.42;;;;;;;;;;5043660;28;20039;-66
2021/04/26 13:15:36;;;;;;;10.25;3.90;;;;;;;;;;5043462;28;20186;-66
2021/04/26 13:18:18;;;;;;;7.75;3.95;;;;;;;;;;5043102;28;20024;-66
2021/04/26 13:20:48;;;;;;;7.90;3.22;;;;;;;;;;5044231;28;20044;-66
2021/04/26 13:23:13;;;;;;;7.80;3.40;;;;;;;;;;5043833;28;20037;-66
2021/04/26 13:25:38;;;;;;;5.47;3.08;;;;;;;;;;5044117;28;20040;-66
2021/04/26 13:28:04;;;;;;;7.95;3.58;;;;;;;;;;5043237;28;20037;-66
2021/04/26 13:30:29;;;;;;;6.95;3.38;;;;;;;;;;5044119;28;20036;-66
2021/04/26 13:32:54;;;;;;;5.60;3.67;;;;;;;;;;5044182;28;20029;-66
2021/04/26 13:35:19;;;;;;;7.32;3.67;;;;;;;;;;5043699;28;20390;-66
2021/04/26 13:37:45;;;;;;;7.65;3.90;;;;;;;;;;5043300;28;20028;-66
2021/04/26 13:40:10;;;;;;;7.07;3.65;;;;;;;;;;5043138;28;20398;-66
2021/04/26 13:42:36;;;;;;;13.18;3.70;;;;;;;;;;5043689;28;20033;-66
2021/04/26 13:45:01;;;;;;;10.75;4.05;;;;;;;;;;5044251;28;20549;-66
2021/04/26 13:47:26;;;;;;;8.18;3.92;;;;;;;;;;5042896;28;20780;-66
2021/04/26 13:49:52;;;;;;;8.90;4.05;;;;;;;;;;5042999;28;20486;-66
2021/04/26 13:52:17;;;;;;;9.52;4.20;;;;;;;;;;5043792;28;20029;-66
2021/04/26 13:54:42;;;;;;;9.25;3.95;;;;;;;;;;5043359;28;20020;-67
2021/04/26 13:57:08;;;;;;;10.63;4.60;;;;;;;;;;5043251;28;20524;-66
2021/04/26 13:59:33;;;;;;;11.48;4.13;;;;;;;;;;5042773;28;20037;-66
2021/04/26 14:01:58;;;;;;;8.00;3.72;;;;;;;;;;5042788;28;20021;-66
2021/04/26 14:04:24;;;;;;;7.40;4.32;;;;;;;;;;5042363;28;20029;-66
2021/04/26 14:06:49;;;;;;;7.25;4.20;;;;;;;;;;5043045;28;20043;-66
2021/04/26 14:09:14;;;;;;;8.50;4.20;;;;;;;;;;5042513;28;20418;-66
2021/04/26 14:11:45;;;;;;;11.00;4.60;;;;;;;;;;5042064;28;20033;-66
2021/04/26 14:14:11;;;;;;;6.90;4.35;;;;;;;;;;5043131;28;20083;-66
2021/04/26 14:16:36;;;;;;;12.65;4.53;;;;;;;;;;5043136;28;20736;-66
2021/04/26 14:19:02;;;;;;;9.88;4.93;;;;;;;;;;5042369;28;20064;-66
2021/04/26 14:21:28;;;;;;;9.55;4.28;;;;;;;;;;5042735;28;20036;-66
2021/04/26 14:23:53;;;;;;;11.73;4.40;;;;;;;;;;5043288;28;20035;-66
2021/04/26 14:26:18;;;;;;;8.50;4.60;;;;;;;;;;5042367;28;20033;-66
2021/04/26 14:28:43;;;;;;;7.75;4.00;;;;;;;;;;5042002;28;20048;-66
2021/04/26 14:31:09;;;;;;;6.20;4.75;;;;;;;;;;5043082;28;20519;-66
2021/04/26 14:33:34;;;;;;;10.70;4.18;;;;;;;;;;5036655;28;20060;-66
2021/04/26 14:35:59;;;;;;;9.27;4.65;;;;;;;;;;5043048;28;20033;-66
2021/04/26 14:38:25;;;;;;;7.32;3.85;;;;;;;;;;5042806;28;20492;-66